Terminal Aerodrome Forecast
Issued by NWS Cleveland, OH

Home | Current Version | Previous Version | Graphics & Text | Print | Product List | Glossary On
Versions: 1 2 3 4 5 6 7 8 9 10 11 12 13 14 15 16 17 18 19 20 21
000
FTUS41 KCLE 142300
TAFERI
TAF
KERI 142340Z 1500/1524 03005KT P6SM SCT050
     FM150400 21003KT P6SM FEW050
     FM151400 20008KT P6SM SCT100 BKN250
     FM152100 20008KT P6SM BKN060 OVC100
     FM152200 23008KT P6SM -RA BKN045 OVC100=

USA.gov is the U.S. government's official web portal to all federal, state and local government web resources and services.